Time;durP1;ratioP1;P1;durP2;ratioP2;P2;SDS_P1;SDS_P2;PMS_P1;PMS_P2;Temp;Humidity;BMP_temperature;BMP_pressure;BME280_temperature;BME280_humidity;BME280_pressure;Samples;Min_cycle;Max_cycle;Signal;HPM_P1;HPM_P2
2021/03/17 00:02:15;;;;;;;11.23;7.13;;;;;;;6.96;65.07;98475.41;5059687;28;20021;-70
2021/03/17 00:04:40;;;;;;;10.32;7.10;;;;;;;6.90;65.13;98460.28;5044805;28;20105;-70
2021/03/17 00:07:06;;;;;;;14.32;7.50;;;;;;;6.94;65.58;98456.34;5048724;28;20045;-70
2021/03/17 00:09:31;;;;;;;12.10;8.00;;;;;;;6.91;66.03;98464.56;5043744;28;20092;-71
2021/03/17 00:11:57;;;;;;;13.93;8.30;;;;;;;6.83;65.70;98448.81;5047611;28;20431;-65
2021/03/17 00:14:23;;;;;;;10.48;7.25;;;;;;;6.82;66.46;98455.88;5043239;28;20033;-64
2021/03/17 00:16:48;;;;;;;11.63;8.00;;;;;;;6.76;66.05;98461.81;5053575;28;20306;-70
2021/03/17 00:19:14;;;;;;;19.52;10.90;;;;;;;6.82;66.46;98455.88;5061873;28;20029;-70
2021/03/17 00:21:39;;;;;;;11.70;7.93;;;;;;;6.71;66.44;98449.16;5045854;28;20071;-64
2021/03/17 00:24:07;;;;;;;11.38;7.72;;;;;;;6.79;66.66;98461.47;5046258;28;20021;-64
2021/03/17 00:26:32;;;;;;;15.40;8.25;;;;;;;6.84;66.06;98463.59;5044782;28;20040;-70
2021/03/17 00:28:58;;;;;;;11.20;8.40;;;;;;;6.87;65.61;98461.47;5045044;28;20024;-70
2021/03/17 00:31:23;;;;;;;13.00;8.32;;;;;;;6.92;65.95;98461.75;5047090;28;20036;-71
2021/03/17 00:33:49;;;;;;;10.50;6.93;;;;;;;6.85;65.98;98455.53;5043269;28;20046;-71
2021/03/17 00:36:14;;;;;;;12.35;8.00;;;;;;;6.90;65.79;98457.66;5059444;28;20319;-70
2021/03/17 00:38:40;;;;;;;9.77;6.90;;;;;;;7.00;65.85;98461.72;5042875;28;20029;-70
2021/03/17 00:41:05;;;;;;;13.23;7.88;;;;;;;7.07;65.68;98466.31;5046789;28;20028;-72
2021/03/17 00:43:31;;;;;;;11.95;8.02;;;;;;;7.11;65.34;98460.53;5056555;28;20032;-70
2021/03/17 00:45:56;;;;;;;10.73;8.13;;;;;;;7.18;65.12;98469.38;5061551;28;20268;-64
2021/03/17 00:48:22;;;;;;;12.55;8.45;;;;;;;6.93;66.21;98463.41;5046959;28;20408;-70
2021/03/17 00:50:48;;;;;;;14.07;8.68;;;;;;;6.97;66.00;98462.06;5040772;28;20029;-70
2021/03/17 00:53:13;;;;;;;11.73;8.38;;;;;;;6.98;66.08;98466.34;5045713;28;20323;-64
2021/03/17 00:55:39;;;;;;;11.68;8.25;;;;;;;6.97;65.81;98463.88;5041283;28;20028;-70
2021/03/17 00:58:04;;;;;;;12.70;8.30;;;;;;;6.93;66.12;98450.25;5043372;28;20049;-70
2021/03/17 01:00:30;;;;;;;12.27;8.55;;;;;;;6.90;65.70;98455.84;5045422;28;20040;-71
2021/03/17 01:02:55;;;;;;;12.93;8.68;;;;;;;6.96;65.84;98449.91;5041098;28;20040;-71
2021/03/17 01:05:21;;;;;;;11.27;8.50;;;;;;;7.09;65.43;98452.00;5045928;28;20199;-69
2021/03/17 01:07:46;;;;;;;12.48;8.63;;;;;;;7.07;65.56;98450.53;5043759;28;20083;-70
2021/03/17 01:10:18;;;;;;;11.15;8.00;;;;;;;7.03;65.88;98455.31;5049880;28;20231;-70
2021/03/17 01:12:43;;;;;;;10.95;7.75;;;;;;;7.09;65.38;98451.19;5044845;28;20278;-64
2021/03/17 01:15:12;;;;;;;12.05;8.48;;;;;;;7.21;65.20;98448.00;5044525;28;20049;-71
2021/03/17 01:17:38;;;;;;;11.23;8.15;;;;;;;7.00;65.25;98432.78;5043638;28;20021;-71
2021/03/17 01:20:05;;;;;;;11.73;8.75;;;;;;;7.06;65.98;98431.28;5048810;28;20037;-64
2021/03/17 01:22:30;;;;;;;12.15;8.80;;;;;;;7.02;65.84;98433.44;5051378;28;20100;-70
2021/03/17 01:24:56;;;;;;;11.20;8.05;;;;;;;7.01;65.64;98429.16;5058284;28;20041;-70
2021/03/17 01:27:21;;;;;;;12.32;8.63;;;;;;;6.93;65.86;98413.41;5051259;28;20326;-70
2021/03/17 01:29:47;;;;;;;13.43;8.57;;;;;;;6.95;66.04;98432.47;5057823;28;20036;-70
2021/03/17 01:32:12;;;;;;;14.25;8.75;;;;;;;7.07;65.79;98434.72;5047805;28;20835;-70
2021/03/17 01:34:38;;;;;;;13.40;9.07;;;;;;;6.97;65.36;98437.56;5040377;28;20204;-70
2021/03/17 01:37:03;;;;;;;12.18;8.73;;;;;;;7.01;66.01;98441.50;5043756;28;20120;-71
2021/03/17 01:39:29;;;;;;;14.63;8.95;;;;;;;7.02;66.05;98436.06;5074519;28;20029;-71
2021/03/17 01:41:54;;;;;;;11.85;8.88;;;;;;;6.91;65.37;98433.00;5042888;28;20220;-64
2021/03/17 01:44:20;;;;;;;14.98;9.13;;;;;;;6.96;65.16;98423.59;5041429;28;20286;-64
2021/03/17 01:46:46;;;;;;;11.77;8.90;;;;;;;6.91;65.17;98420.66;5043746;28;20105;-70
2021/03/17 01:49:11;;;;;;;14.32;9.13;;;;;;;6.97;64.86;98434.94;5041189;28;20033;-70
2021/03/17 01:51:37;;;;;;;13.85;9.57;;;;;;;6.89;64.95;98427.06;5044424;28;20037;-70
2021/03/17 01:54:04;;;;;;;14.50;10.02;;;;;;;6.82;65.40;98432.19;5044659;28;20037;-70
2021/03/17 01:56:30;;;;;;;16.05;10.48;;;;;;;6.77;65.79;98438.97;5043839;28;20223;-64
2021/03/17 01:58:56;;;;;;;16.00;10.13;;;;;;;6.93;65.45;98439.72;5044973;28;20185;-64
2021/03/17 02:01:22;;;;;;;16.60;10.63;;;;;;;6.83;65.35;98439.09;5041619;28;20075;-64
2021/03/17 02:03:48;;;;;;;18.15;11.00;;;;;;;6.87;65.27;98442.22;5044142;28;20044;-64
2021/03/17 02:06:13;;;;;;;19.20;10.35;;;;;;;6.92;64.95;98439.91;5050673;28;20045;-65
2021/03/17 02:08:42;;;;;;;14.32;10.07;;;;;;;7.02;63.97;98437.88;5045387;28;20036;-64
2021/03/17 02:11:10;;;;;;;16.33;10.73;;;;;;;7.11;64.50;98449.19;5041870;28;20042;-67
2021/03/17 02:13:36;;;;;;;15.70;9.77;;;;;;;7.07;63.63;98445.25;5043664;28;20041;-64
2021/03/17 02:16:33;;;;;;;16.52;11.25;;;;;;;6.97;64.01;98433.13;5057942;28;20033;-71
2021/03/17 02:19:19;;;;;;;15.40;8.98;;;;;;;6.95;64.39;98442.19;5054521;28;20045;-66
2021/03/17 02:22:09;;;;;;;13.30;9.73;;;;;;;7.07;63.96;98438.19;5046001;28;20035;-64
2021/03/17 02:24:58;;;;;;;16.45;9.50;;;;;;;6.93;64.65;98437.09;5040487;28;20033;-64
2021/03/17 02:27:47;;;;;;;14.43;9.73;;;;;;;6.98;64.48;98444.47;5045895;28;20726;-64
2021/03/17 02:30:28;;;;;;;13.63;10.20;;;;;;;7.12;63.87;98441.13;5039767;28;20025;-64
2021/03/17 02:33:30;;;;;;;16.10;10.38;;;;;;;6.92;64.20;98434.63;5044603;28;20250;-64
2021/03/17 02:36:10;;;;;;;14.30;10.38;;;;;;;7.10;64.50;98442.28;5042434;28;20064;-64
2021/03/17 02:38:39;;;;;;;15.82;10.50;;;;;;;6.97;64.19;98448.91;5048727;28;20381;-64
2021/03/17 02:41:06;;;;;;;13.45;9.90;;;;;;;7.01;64.76;98442.31;5045143;28;20040;-64
2021/03/17 02:43:35;;;;;;;13.85;9.88;;;;;;;7.06;64.27;98441.81;5048845;28;20036;-70
2021/03/17 02:46:06;;;;;;;16.10;10.10;;;;;;;6.90;64.66;98436.63;5045952;28;20037;-70
2021/03/17 02:48:38;;;;;;;13.75;9.63;;;;;;;6.96;64.81;98430.66;5046994;28;20091;-70
2021/03/17 02:51:08;;;;;;;14.95;9.52;;;;;;;7.05;64.40;98434.91;5047753;28;20096;-64
2021/03/17 02:53:37;;;;;;;14.73;9.88;;;;;;;6.92;64.48;98434.63;5046368;28;20060;-70
2021/03/17 02:56:14;;;;;;;16.92;9.85;;;;;;;6.90;64.90;98439.25;5050108;28;20079;-65
2021/03/17 02:58:45;;;;;;;18.08;11.15;;;;;;;6.98;65.00;98431.31;5045467;28;20024;-64
2021/03/17 03:01:15;;;;;;;14.60;9.75;;;;;;;6.96;64.53;98435.94;5050650;28;20087;-65
2021/03/17 03:03:41;;;;;;;12.38;9.05;;;;;;;6.84;65.92;98440.75;5044060;28;20468;-64
2021/03/17 03:06:09;;;;;;;16.92;10.57;;;;;;;6.95;65.47;98442.19;5045574;28;20052;-64
2021/03/17 03:08:37;;;;;;;15.52;9.93;;;;;;;6.98;65.13;98436.59;5047756;28;20017;-65
2021/03/17 03:11:06;;;;;;;14.32;9.45;;;;;;;6.83;65.71;98435.66;5046747;28;20041;-64
2021/03/17 03:13:33;;;;;;;15.60;9.18;;;;;;;6.76;65.71;98435.50;5047367;28;20481;-71
2021/03/17 03:16:00;;;;;;;12.02;8.43;;;;;;;6.79;65.74;98432.53;5043954;28;20302;-65
2021/03/17 03:18:26;;;;;;;12.32;8.98;;;;;;;6.83;65.38;98427.75;5049341;28;20013;-64
2021/03/17 03:20:54;;;;;;;11.60;8.15;;;;;;;6.60;65.51;98422.41;5043775;28;20111;-71
2021/03/17 03:23:21;;;;;;;12.23;8.65;;;;;;;6.88;64.78;98435.97;5057997;28;20080;-70
2021/03/17 03:25:48;;;;;;;12.38;8.55;;;;;;;6.80;64.99;98426.28;5063009;28;20052;-70
2021/03/17 03:28:15;;;;;;;17.60;9.38;;;;;;;6.73;64.92;98428.78;5047493;28;20032;-64
2021/03/17 03:30:47;;;;;;;13.07;8.55;;;;;;;6.88;64.59;98438.59;5048246;28;20046;-64
2021/03/17 03:33:13;;;;;;;14.68;8.23;;;;;;;6.90;64.33;98434.81;5061313;28;20265;-64
2021/03/17 03:35:40;;;;;;;11.75;8.25;;;;;;;6.82;64.06;98429.56;5060244;28;20269;-64
2021/03/17 03:38:14;;;;;;;11.98;8.20;;;;;;;6.68;64.61;98432.91;5045447;28;20319;-64
2021/03/17 03:40:42;;;;;;;11.93;8.20;;;;;;;6.74;64.66;98419.06;5045694;28;20264;-65
2021/03/17 03:43:09;;;;;;;15.05;9.02;;;;;;;6.67;64.86;98412.84;5048325;28;20056;-65
2021/03/17 03:45:36;;;;;;;12.48;8.65;;;;;;;6.80;64.48;98422.84;5044083;28;20369;-70
2021/03/17 03:48:06;;;;;;;12.70;8.27;;;;;;;6.60;64.87;98417.16;5046223;28;20043;-64
2021/03/17 03:50:36;;;;;;;13.68;9.23;;;;;;;6.61;65.17;98416.97;5042878;28;20040;-64
2021/03/17 03:53:19;;;;;;;14.90;8.02;;;;;;;6.61;64.15;98414.34;5046553;28;20044;-64
2021/03/17 03:55:53;;;;;;;12.73;8.17;;;;;;;6.68;64.31;98425.03;5042555;28;20051;-70
2021/03/17 03:58:28;;;;;;;15.48;10.02;;;;;;;6.67;64.25;98429.47;5044310;28;20462;-65
2021/03/17 04:01:01;;;;;;;11.57;7.90;;;;;;;6.78;64.24;98417.75;5054835;28;20108;-65
2021/03/17 04:03:32;;;;;;;12.52;8.60;;;;;;;6.63;64.09;98428.16;5059276;28;20033;-64
2021/03/17 04:05:58;;;;;;;13.75;8.13;;;;;;;6.60;64.22;98430.31;5043983;28;20091;-64
2021/03/17 04:08:26;;;;;;;14.85;8.55;;;;;;;6.60;64.54;98417.97;5043579;28;20297;-65
2021/03/17 04:10:57;;;;;;;13.32;8.50;;;;;;;6.63;64.50;98427.34;5047466;28;20371;-65
2021/03/17 04:13:25;;;;;;;16.38;8.75;;;;;;;6.55;64.01;98407.13;5042454;28;20056;-65
2021/03/17 04:15:55;;;;;;;15.70;8.05;;;;;;;6.59;64.39;98412.88;5046122;28;20041;-65
2021/03/17 04:18:25;;;;;;;10.38;7.63;;;;;;;6.51;64.52;98420.78;5046831;28;20071;-65
2021/03/17 04:20:54;;;;;;;11.70;7.55;;;;;;;6.59;63.72;98418.13;5043752;28;20021;-64
2021/03/17 04:23:23;;;;;;;12.40;7.85;;;;;;;6.61;63.82;98424.88;5044475;28;20025;-64
2021/03/17 04:25:51;;;;;;;14.60;9.10;;;;;;;6.40;64.18;98419.34;5043277;28;20030;-64
2021/03/17 04:28:20;;;;;;;14.23;8.07;;;;;;;6.39;64.28;98415.88;5050282;28;20253;-64
2021/03/17 04:30:47;;;;;;;12.40;8.65;;;;;;;6.36;64.61;98410.16;5043041;28;20253;-65
2021/03/17 04:33:15;;;;;;;14.13;8.65;;;;;;;6.34;63.79;98412.13;5044933;28;20032;-64
2021/03/17 04:35:42;;;;;;;12.23;8.55;;;;;;;6.52;64.00;98423.25;5041474;28;20219;-65
2021/03/17 04:38:09;;;;;;;13.32;8.30;;;;;;;6.52;63.67;98412.75;5045690;28;20055;-64
2021/03/17 04:40:36;;;;;;;14.18;8.90;;;;;;;6.55;63.68;98415.03;5041354;28;20029;-64
2021/03/17 04:43:03;;;;;;;13.95;8.45;;;;;;;6.60;63.27;98417.16;5042153;28;20111;-64
2021/03/17 04:45:30;;;;;;;12.52;7.55;;;;;;;6.59;63.94;98418.13;5044613;28;20037;-71
2021/03/17 04:47:56;;;;;;;12.95;8.18;;;;;;;6.58;63.74;98424.38;5041620;28;20040;-71
2021/03/17 04:50:25;;;;;;;14.90;8.07;;;;;;;6.64;63.61;98421.91;5045766;28;20033;-70
2021/03/17 04:52:52;;;;;;;12.95;8.13;;;;;;;6.55;63.10;98432.63;5043595;28;20040;-64
2021/03/17 04:55:18;;;;;;;13.65;8.40;;;;;;;6.50;63.73;98438.38;5043387;28;20032;-70
2021/03/17 04:57:45;;;;;;;12.77;8.57;;;;;;;6.40;63.56;98433.31;5049289;28;20095;-73
2021/03/17 05:00:22;;;;;;;14.30;9.13;;;;;;;6.61;62.91;98437.19;5043177;28;20037;-70
2021/03/17 05:02:55;;;;;;;19.08;9.20;;;;;;;6.66;63.46;98438.34;5047695;28;20029;-70
2021/03/17 05:09:00;;;;;;;14.05;7.97;;;;;;;6.51;62.65;98442.66;5066387;28;20094;-70
2021/03/17 05:11:27;;;;;;;13.93;8.55;;;;;;;6.59;63.03;98441.81;5043268;28;20026;-70
2021/03/17 05:13:53;;;;;;;18.63;10.52;;;;;;;6.55;62.76;98453.66;5044220;28;20067;-64
2021/03/17 05:16:19;;;;;;;20.02;10.70;;;;;;;6.42;63.35;98433.13;5047992;28;20037;-70
2021/03/17 05:18:47;;;;;;;16.17;8.73;;;;;;;6.68;62.40;98452.16;5042568;28;20059;-64
2021/03/17 05:21:14;;;;;;;34.40;12.93;;;;;;;6.76;62.18;98440.78;5046969;28;20025;-65
2021/03/17 05:23:41;;;;;;;13.77;9.23;;;;;;;6.82;62.37;98455.88;5053687;28;20064;-71
2021/03/17 05:26:07;;;;;;;11.50;8.40;;;;;;;6.87;61.82;98453.56;5061651;28;20100;-64
2021/03/17 05:28:34;;;;;;;17.75;9.25;;;;;;;6.77;61.79;98446.84;5052757;28;20032;-64
2021/03/17 05:31:00;;;;;;;14.43;9.05;;;;;;;6.73;62.38;98457.72;5051678;28;20033;-64
2021/03/17 05:33:27;;;;;;;13.55;8.20;;;;;;;6.83;60.89;98457.53;5041459;28;20049;-64
2021/03/17 05:35:54;;;;;;;13.60;9.15;;;;;;;6.69;61.63;98450.34;5045562;28;20096;-64
2021/03/17 05:38:19;;;;;;;16.10;9.45;;;;;;;6.82;61.44;98461.13;5040521;28;20227;-64
2021/03/17 05:40:45;;;;;;;13.32;8.93;;;;;;;6.86;61.52;98451.09;5044289;28;20025;-65
2021/03/17 05:43:11;;;;;;;13.88;8.82;;;;;;;6.96;61.03;98462.25;5044261;28;20033;-71
2021/03/17 05:45:39;;;;;;;17.42;10.23;;;;;;;7.01;60.73;98465.19;5046285;28;20097;-70
2021/03/17 05:48:06;;;;;;;13.43;8.13;;;;;;;6.91;60.58;98460.13;5044045;28;20263;-70
2021/03/17 05:50:32;;;;;;;14.77;9.60;;;;;;;6.96;60.56;98467.50;5044275;28;20037;-64
2021/03/17 05:52:58;;;;;;;15.88;9.13;;;;;;;7.06;61.02;98473.41;5047092;28;20038;-70
2021/03/17 05:55:24;;;;;;;15.38;8.90;;;;;;;7.09;60.64;98475.69;5041115;28;20038;-70
2021/03/17 05:57:50;;;;;;;12.43;8.93;;;;;;;7.23;60.35;98469.69;5044751;28;20067;-71
2021/03/17 06:00:19;;;;;;;12.57;8.98;;;;;;;7.24;59.81;98478.41;5042289;28;20132;-70
2021/03/17 06:02:46;;;;;;;14.40;8.65;;;;;;;7.34;59.79;98477.25;5043200;28;20037;-71
2021/03/17 06:05:12;;;;;;;12.52;8.32;;;;;;;7.30;59.42;98473.31;5044051;28;20398;-70
2021/03/17 06:07:56;;;;;;;14.25;8.73;;;;;;;7.32;58.62;98470.50;5045774;28;20059;-70
2021/03/17 06:10:22;;;;;;;13.32;9.40;;;;;;;7.29;59.71;98468.22;5042252;28;20032;-70
2021/03/17 06:12:51;;;;;;;14.18;9.85;;;;;;;7.33;59.23;98480.06;5076052;28;20022;-64
2021/03/17 06:15:21;;;;;;;12.60;8.82;;;;;;;7.49;58.71;98484.41;5045831;28;20099;-64
2021/03/17 06:17:54;;;;;;;13.57;8.90;;;;;;;7.43;57.66;98474.56;5045376;28;20039;-65
2021/03/17 06:20:20;;;;;;;18.75;9.10;;;;;;;7.57;58.30;98492.28;5049491;28;20028;-65
2021/03/17 06:22:46;;;;;;;10.75;7.72;;;;;;;7.49;57.19;98497.59;5046060;28;20033;-70
2021/03/17 06:25:12;;;;;;;14.77;9.57;;;;;;;7.68;57.70;98486.59;5045427;28;20029;-64
2021/03/17 06:27:38;;;;;;;14.23;9.32;;;;;;;7.65;58.27;98502.75;5046880;28;20382;-70
2021/03/17 06:30:05;;;;;;;12.88;9.30;;;;;;;7.65;57.05;98502.75;5048119;28;20048;-70
2021/03/17 06:32:35;;;;;;;17.80;8.93;;;;;;;7.55;56.33;98492.44;5043842;28;20014;-70
2021/03/17 06:35:15;;;;;;;13.40;8.90;;;;;;;7.50;56.39;98505.31;5055673;28;20211;-70
2021/03/17 06:37:41;;;;;;;16.40;10.23;;;;;;;7.73;56.77;98517.69;5054178;28;20059;-72
2021/03/17 06:40:26;;;;;;;18.00;10.35;;;;;;;7.60;57.16;98513.81;5055007;28;20274;-64
2021/03/17 06:42:54;;;;;;;14.88;9.27;;;;;;;7.52;56.87;98510.41;5062565;28;20024;-64
2021/03/17 06:45:31;;;;;;;15.02;10.30;;;;;;;7.62;56.50;98508.38;5062636;28;20020;-71
2021/03/17 06:48:16;;;;;;;15.85;10.07;;;;;;;7.70;57.41;98518.88;5056464;28;20017;-64
2021/03/17 06:50:41;;;;;;;12.45;8.93;;;;;;;7.71;56.25;98517.88;5054900;28;20029;-71
2021/03/17 06:53:07;;;;;;;14.30;9.57;;;;;;;7.87;56.74;98525.69;5055386;28;20232;-73
2021/03/17 06:55:32;;;;;;;19.63;10.55;;;;;;;7.91;55.98;98516.44;5053283;28;20382;-74
2021/03/17 06:57:58;;;;;;;15.50;10.18;;;;;;;8.08;56.48;98526.88;5056240;28;20028;-73
2021/03/17 07:00:38;;;;;;;13.00;9.43;;;;;;;8.06;55.07;98526.22;5054383;28;20033;-73
2021/03/17 07:03:13;;;;;;;14.73;9.80;;;;;;;7.93;55.21;98527.63;5055888;28;20067;-71
2021/03/17 07:05:41;;;;;;;15.27;9.38;;;;;;;7.90;55.16;98532.41;5055048;28;20029;-71
2021/03/17 07:08:14;;;;;;;14.23;9.07;;;;;;;8.04;55.02;98533.47;5054147;28;20063;-65
2021/03/17 07:10:42;;;;;;;15.13;9.27;;;;;;;7.96;55.80;98522.00;5054045;28;20037;-65
2021/03/17 07:13:09;;;;;;;15.73;9.95;;;;;;;7.93;54.63;98522.34;5053106;28;20021;-71
2021/03/17 07:15:37;;;;;;;15.38;8.68;;;;;;;7.89;54.05;98538.69;5062025;28;20031;-65
2021/03/17 07:18:22;;;;;;;14.10;9.40;;;;;;;7.81;54.82;98523.75;5062220;28;20071;-70
2021/03/17 07:20:54;;;;;;;14.70;8.85;;;;;;;7.74;54.97;98522.78;5057188;28;20036;-64
2021/03/17 07:23:29;;;;;;;15.15;9.60;;;;;;;7.91;54.94;98534.06;5054743;28;20037;-64
2021/03/17 07:26:16;;;;;;;15.68;10.00;;;;;;;8.00;55.49;98528.56;5054612;28;20025;-65
2021/03/17 07:28:48;;;;;;;13.15;9.20;;;;;;;7.80;55.12;98530.00;5054994;28;20020;-64
2021/03/17 07:31:16;;;;;;;15.95;9.35;;;;;;;7.82;54.59;98546.47;5055224;28;20033;-64
2021/03/17 07:33:42;;;;;;;15.95;10.23;;;;;;;7.73;54.54;98523.78;5055059;28;20029;-70
2021/03/17 07:36:08;;;;;;;19.10;10.25;;;;;;;7.72;55.05;98542.41;5052720;28;20041;-71
2021/03/17 07:38:34;;;;;;;15.93;9.85;;;;;;;8.08;54.52;98538.22;5051902;28;20099;-72
2021/03/17 07:40:59;;;;;;;17.52;9.68;;;;;;;7.97;54.14;98528.91;5054328;28;20068;-71
2021/03/17 07:43:26;;;;;;;21.83;11.15;;;;;;;7.95;54.42;98537.97;5060104;28;20669;-71
2021/03/17 07:45:53;;;;;;;17.35;10.60;;;;;;;8.07;54.11;98533.94;5061665;28;20037;-67
2021/03/17 07:48:20;;;;;;;14.77;9.27;;;;;;;8.05;53.98;98535.94;5063045;28;20316;-70
2021/03/17 07:50:46;;;;;;;15.23;9.07;;;;;;;7.79;54.50;98544.19;5060775;28;20049;-70
2021/03/17 07:53:25;;;;;;;14.38;9.15;;;;;;;7.96;54.01;98550.16;5069603;28;20033;-72
2021/03/17 07:55:56;;;;;;;14.38;10.15;;;;;;;8.00;53.93;98536.47;5061596;28;20326;-71
2021/03/17 07:58:22;;;;;;;14.98;8.77;;;;;;;7.95;52.94;98548.53;5077398;28;20020;-71
2021/03/17 08:00:47;;;;;;;12.98;8.93;;;;;;;7.90;53.54;98550.88;5072014;28;20070;-71
2021/03/17 08:03:14;;;;;;;17.13;9.40;;;;;;;7.92;53.80;98531.25;5062237;28;20432;-71
2021/03/17 08:05:40;;;;;;;13.98;9.18;;;;;;;7.77;53.32;98532.16;5061467;28;20074;-70
2021/03/17 08:08:06;;;;;;;14.05;8.88;;;;;;;7.98;52.96;98548.19;5062376;28;20343;-67
2021/03/17 08:10:34;;;;;;;15.05;9.05;;;;;;;7.92;53.59;98554.16;5061298;28;20039;-65
2021/03/17 08:13:00;;;;;;;14.18;9.02;;;;;;;7.83;53.38;98547.28;5061923;28;20029;-65
2021/03/17 08:15:26;;;;;;;13.10;8.20;;;;;;;7.80;53.70;98550.25;5061193;28;20048;-70
2021/03/17 08:17:52;;;;;;;13.68;8.13;;;;;;;7.88;52.99;98556.31;5062324;28;20032;-71
2021/03/17 08:20:28;;;;;;;12.07;8.07;;;;;;;7.82;52.74;98556.19;5060853;28;20037;-71
2021/03/17 08:22:56;;;;;;;10.55;7.78;;;;;;;7.87;52.87;98564.38;5062256;28;20250;-70
2021/03/17 08:25:45;;;;;;;12.27;8.48;;;;;;;7.90;53.01;98562.22;5060840;28;20032;-65
2021/03/17 08:28:29;;;;;;;12.93;8.27;;;;;;;7.81;53.17;98546.63;5068282;28;20025;-71
2021/03/17 08:30:56;;;;;;;12.63;8.07;;;;;;;8.03;52.97;98561.66;5061019;28;20215;-73
2021/03/17 08:33:40;;;;;;;13.95;8.48;;;;;;;8.13;51.87;98578.06;5061801;28;20067;-70
2021/03/17 08:36:15;;;;;;;11.77;8.70;;;;;;;8.14;52.43;98571.81;5060331;28;20033;-70
2021/03/17 08:38:49;;;;;;;12.13;7.53;;;;;;;8.06;51.95;98577.13;5061589;28;20028;-70
2021/03/17 08:41:34;;;;;;;11.70;8.18;;;;;;;8.03;52.38;98569.56;5060440;28;20033;-64
2021/03/17 08:44:17;;;;;;;13.23;8.50;;;;;;;7.80;53.66;98574.81;5061764;28;20253;-64
2021/03/17 08:46:43;;;;;;;13.60;8.57;;;;;;;7.79;53.11;98578.44;5060589;28;20254;-64
2021/03/17 08:49:10;;;;;;;12.55;7.95;;;;;;;7.78;53.18;98578.59;5060943;28;20043;-64
2021/03/17 08:51:45;;;;;;;14.25;8.02;;;;;;;7.75;53.23;98581.59;5061659;28;20039;-64
2021/03/17 08:54:29;;;;;;;12.00;8.43;;;;;;;7.70;53.39;98576.84;5061585;28;20200;-70
2021/03/17 08:57:05;;;;;;;14.45;8.52;;;;;;;7.80;52.32;98580.06;5059474;28;20040;-71
2021/03/17 08:59:45;;;;;;;13.10;8.77;;;;;;;7.77;53.03;98582.22;5061140;28;20040;-71
2021/03/17 09:02:19;;;;;;;12.70;8.07;;;;;;;7.79;52.43;98580.25;5060944;28;20092;-70
2021/03/17 09:04:58;;;;;;;11.77;7.78;;;;;;;7.77;52.78;98585.69;5073670;28;20055;-70
2021/03/17 09:07:29;;;;;;;10.98;8.02;;;;;;;7.78;53.82;98583.88;5061062;28;20049;-64
2021/03/17 09:09:57;;;;;;;12.10;8.35;;;;;;;7.66;53.93;98589.53;5059587;28;20049;-64
2021/03/17 09:12:26;;;;;;;11.07;7.45;;;;;;;7.83;53.74;98592.09;5060923;28;20337;-64
2021/03/17 09:15:17;;;;;;;11.98;7.80;;;;;;;7.78;52.91;98592.59;5060015;28;20036;-70
2021/03/17 09:17:54;;;;;;;12.77;8.52;;;;;;;7.81;53.70;98594.91;5060467;28;20033;-64
2021/03/17 09:20:24;;;;;;;11.82;8.38;;;;;;;7.66;53.52;98581.63;5059059;28;20315;-70
2021/03/17 09:22:59;;;;;;;14.35;8.43;;;;;;;7.77;53.59;98598.03;5061693;28;20032;-65
2021/03/17 09:25:31;;;;;;;12.43;7.68;;;;;;;7.83;54.26;98598.19;5060187;28;20029;-65
2021/03/17 09:28:03;;;;;;;13.35;8.55;;;;;;;7.85;54.22;98596.19;5060632;28;20024;-70
2021/03/17 09:30:42;;;;;;;21.95;8.07;;;;;;;7.92;54.29;98596.31;5059922;28;20090;-70
2021/03/17 09:33:13;;;;;;;11.63;7.82;;;;;;;7.92;53.95;98601.59;5060840;28;20028;-70
2021/03/17 09:35:40;;;;;;;10.90;7.50;;;;;;;7.77;54.59;98598.03;5058758;28;20090;-70
2021/03/17 09:38:14;;;;;;;10.90;7.68;;;;;;;7.93;54.74;98609.31;5059594;28;20027;-71
2021/03/17 09:40:46;;;;;;;12.23;8.65;;;;;;;7.98;55.58;98619.34;5059927;28;20091;-71
2021/03/17 09:43:29;;;;;;;12.93;7.88;;;;;;;7.85;54.91;98613.81;5060543;28;20373;-64
2021/03/17 09:45:55;;;;;;;13.02;7.80;;;;;;;7.71;55.98;98611.91;5060381;28;20052;-70
2021/03/17 09:48:23;;;;;;;12.00;7.90;;;;;;;7.77;57.02;98613.84;5061035;28;20112;-70
2021/03/17 09:50:55;;;;;;;12.52;8.05;;;;;;;7.75;57.61;98621.13;5063478;28;20024;-71
2021/03/17 09:53:21;;;;;;;17.05;8.30;;;;;;;7.51;59.22;98620.22;5064807;28;20386;-71
2021/03/17 09:55:47;;;;;;;11.55;7.60;;;;;;;7.41;58.90;98603.78;5063844;28;20055;-70
2021/03/17 09:58:12;;;;;;;10.60;6.63;;;;;;;7.32;59.74;98631.97;5064198;28;20059;-70
2021/03/17 10:00:38;;;;;;;12.18;8.10;;;;;;;7.31;61.16;98634.75;5063895;28;20071;-70
2021/03/17 10:03:11;;;;;;;13.13;9.10;;;;;;;7.28;61.94;98635.91;5071341;28;20063;-70
2021/03/17 10:05:37;;;;;;;16.63;9.40;;;;;;;7.20;62.94;98643.78;5063597;28;20083;-70
2021/03/17 10:08:03;;;;;;;12.02;8.30;;;;;;;7.28;63.55;98642.97;5064258;28;20082;-71
2021/03/17 10:10:28;;;;;;;11.45;7.95;;;;;;;7.22;62.57;98644.44;5063869;28;20040;-71
2021/03/17 10:12:54;;;;;;;11.90;8.02;;;;;;;7.28;63.37;98654.34;5064372;28;20058;-65
2021/03/17 10:15:23;;;;;;;11.68;8.18;;;;;;;7.37;60.84;98655.16;5063407;28;20052;-71
2021/03/17 10:17:50;;;;;;;11.35;7.95;;;;;;;7.53;61.22;98665.66;5063802;28;20100;-65
2021/03/17 10:20:22;;;;;;;10.00;7.25;;;;;;;7.19;61.21;98651.88;5062736;28;20358;-65
2021/03/17 10:22:50;;;;;;;12.77;7.90;;;;;;;7.27;61.57;98655.31;5065185;28;20180;-70
2021/03/17 10:25:21;;;;;;;9.25;6.82;;;;;;;7.13;60.76;98661.25;5063235;28;20100;-70
2021/03/17 10:27:50;;;;;;;10.60;6.57;;;;;;;7.12;60.43;98658.78;5063508;28;20071;-71
2021/03/17 10:30:31;;;;;;;11.13;6.95;;;;;;;7.18;60.59;98644.94;5063271;28;20063;-71
2021/03/17 10:33:01;;;;;;;9.18;6.45;;;;;;;7.20;60.48;98659.59;5063984;28;20109;-71
2021/03/17 10:35:27;;;;;;;9.95;6.90;;;;;;;7.18;60.58;98673.91;5062937;28;20128;-70
2021/03/17 10:37:53;;;;;;;9.20;6.15;;;;;;;7.42;59.98;98667.81;5064232;28;20059;-71
2021/03/17 10:40:24;;;;;;;9.45;6.45;;;;;;;7.31;60.46;98669.00;5062229;28;20025;-71
2021/03/17 10:42:58;;;;;;;10.52;6.97;;;;;;;7.13;60.76;98668.31;5062886;28;20051;-71
2021/03/17 10:45:31;;;;;;;11.15;7.15;;;;;;;7.23;61.70;98668.97;5062044;28;20227;-70
2021/03/17 10:47:58;;;;;;;10.13;6.50;;;;;;;7.21;60.44;98663.06;5063974;28;20037;-65
2021/03/17 10:50:29;;;;;;;8.95;6.20;;;;;;;7.15;61.51;98664.53;5062621;28;20061;-71
2021/03/17 10:52:55;;;;;;;8.68;6.22;;;;;;;7.23;60.65;98676.88;5063854;28;20045;-71
2021/03/17 10:55:29;;;;;;;11.88;6.97;;;;;;;7.42;60.32;98680.97;5062741;28;20055;-64
2021/03/17 10:58:08;;;;;;;;;;;;;;;7.45;59.84;98668.31;5063786;28;20312;-64
2021/03/17 11:00:34;;;;;;;8.00;6.22;;;;;;;7.29;60.39;98670.97;5062588;28;19939;-65
2021/03/17 11:03:00;;;;;;;12.43;6.70;;;;;;;7.24;60.43;98683.78;5063482;28;20037;-65
2021/03/17 11:05:32;;;;;;;12.30;7.00;;;;;;;7.36;59.97;98674.56;5062296;28;20035;-64
2021/03/17 11:08:06;;;;;;;8.23;5.35;;;;;;;7.45;58.55;98678.84;5063215;28;20045;-64
2021/03/17 11:10:45;;;;;;;8.00;5.50;;;;;;;7.42;59.98;98676.53;5062826;28;20068;-65
2021/03/17 11:13:17;;;;;;;7.85;5.53;;;;;;;7.31;59.89;98672.44;5063068;28;20032;-64
2021/03/17 11:16:32;;;;;;;8.70;5.80;;;;;;;7.25;60.20;98680.97;5062378;28;20041;-71
2021/03/17 11:19:00;;;;;;;10.40;6.22;;;;;;;7.41;59.68;98653.00;5060000;28;20044;-64
2021/03/17 11:21:37;;;;;;;7.97;5.47;;;;;;;7.46;59.61;98677.03;5061870;28;20086;-65
2021/03/17 11:24:19;;;;;;;10.80;6.47;;;;;;;7.42;60.17;98681.81;5062327;28;20024;-65
2021/03/17 11:26:45;;;;;;;6.97;4.25;;;;;;;7.13;61.18;98692.84;5061811;28;20044;-64
2021/03/17 11:29:27;;;;;;;8.15;6.03;;;;;;;7.40;61.68;98688.22;5063035;28;20016;-64
2021/03/17 11:31:54;;;;;;;9.57;6.25;;;;;;;7.41;61.98;98687.25;5062029;28;20043;-65
2021/03/17 11:34:21;;;;;;;7.32;5.85;;;;;;;7.47;60.42;98691.84;5061038;28;20056;-64
2021/03/17 11:36:48;;;;;;;9.27;6.40;;;;;;;7.58;60.45;98683.56;5062263;28;20039;-64
2021/03/17 11:39:15;;;;;;;9.27;6.20;;;;;;;7.42;61.06;98689.72;5062810;28;20032;-64
2021/03/17 11:41:42;;;;;;;7.53;5.25;;;;;;;7.26;61.20;98693.16;5062387;28;20044;-64
2021/03/17 11:44:13;;;;;;;7.65;5.32;;;;;;;7.43;60.86;98682.63;5062739;28;20055;-71
2021/03/17 11:46:39;;;;;;;7.90;5.95;;;;;;;7.47;61.66;98692.66;5061752;28;20337;-70
2021/03/17 11:49:05;;;;;;;8.43;5.60;;;;;;;7.38;61.74;98685.75;5062320;28;20032;-70
2021/03/17 11:51:30;;;;;;;8.32;5.35;;;;;;;7.45;61.34;98688.53;5062182;28;20033;-65